createdAt,value
2018-08-10T00:01:20.135Z,34.63
2018-08-10T00:03:51.521Z,32.53
2018-08-10T00:06:24.288Z,31.80
2018-08-10T00:08:55.679Z,32.40
2018-08-10T00:11:27.505Z,32.17
2018-08-10T00:13:59.122Z,34.97
2018-08-10T00:16:30.689Z,32.80
2018-08-10T00:19:02.082Z,30.73
2018-08-10T00:21:33.669Z,28.87
2018-08-10T00:24:04.947Z,29.73
2018-08-10T00:26:36.573Z,29.97
2018-08-10T00:29:07.934Z,31.80
2018-08-10T00:31:39.482Z,29.27
2018-08-10T00:34:11.014Z,30.00
2018-08-10T00:36:42.654Z,32.97
2018-08-10T00:39:15.139Z,31.20
2018-08-10T00:41:46.961Z,31.40
2018-08-10T00:44:19.045Z,32.67
2018-08-10T00:46:50.946Z,31.00
2018-08-10T00:49:22.473Z,31.33
2018-08-10T00:51:54.505Z,29.70
2018-08-10T00:54:26.001Z,30.97
2018-08-10T00:56:57.481Z,29.40
2018-08-10T00:59:28.962Z,30.17
2018-08-10T01:02:00.340Z,30.67
2018-08-10T01:04:31.290Z,30.33
2018-08-10T01:07:04.442Z,32.80
2018-08-10T01:09:35.759Z,29.90
2018-08-10T01:12:07.198Z,32.90
2018-08-10T01:14:38.370Z,30.20
2018-08-10T01:17:09.999Z,28.23
2018-08-10T01:19:41.122Z,30.00
2018-08-10T01:22:12.638Z,30.30
2018-08-10T01:24:43.859Z,32.33
2018-08-10T01:27:19.957Z,29.03
2018-08-10T01:29:51.094Z,31.33
2018-08-10T01:32:22.430Z,31.80
2018-08-10T01:34:53.518Z,31.77
2018-08-10T01:37:25.041Z,30.13
2018-08-10T01:39:56.033Z,30.10
2018-08-10T01:42:27.553Z,32.53
2018-08-10T01:44:58.654Z,28.47
2018-08-10T01:47:29.906Z,28.63
2018-08-10T01:50:01.150Z,30.77
2018-08-10T01:52:32.447Z,30.77
2018-08-10T01:55:03.630Z,30.50
2018-08-10T01:57:35.005Z,32.00
2018-08-10T02:00:06.994Z,27.47
2018-08-10T02:02:38.577Z,29.70
2018-08-10T02:05:12.642Z,29.00
2018-08-10T02:07:45.917Z,29.20
2018-08-10T02:10:18.321Z,27.37
2018-08-10T02:12:56.399Z,27.27
2018-08-10T02:15:27.445Z,25.23
2018-08-10T02:17:58.782Z,27.97
2018-08-10T02:20:29.839Z,27.40
2018-08-10T02:23:01.218Z,27.17
2018-08-10T02:25:32.321Z,27.10
2018-08-10T02:28:03.573Z,25.20
2018-08-10T02:30:34.998Z,27.63
2018-08-10T02:33:06.412Z,27.77
2018-08-10T02:35:37.640Z,25.70
2018-08-10T02:38:09.113Z,27.50
2018-08-10T02:40:40.238Z,24.27
2018-08-10T02:43:11.475Z,24.00
2018-08-10T02:45:42.610Z,25.93
2018-08-10T02:48:14.274Z,23.60
2018-08-10T02:50:45.710Z,27.57
2018-08-10T02:53:16.998Z,27.57
2018-08-10T02:55:48.293Z,28.47
2018-08-10T02:58:19.494Z,27.10
2018-08-10T03:00:50.522Z,27.70
2018-08-10T03:03:22.202Z,28.70
2018-08-10T03:05:53.642Z,26.23
2018-08-10T03:08:25.770Z,27.30
2018-08-10T03:10:57.176Z,27.00
2018-08-10T03:13:28.741Z,29.83
2018-08-10T03:16:00.224Z,28.57
2018-08-10T03:18:32.185Z,26.77
2018-08-10T03:21:03.837Z,27.50
2018-08-10T03:23:35.993Z,25.43
2018-08-10T03:26:07.430Z,26.60
2018-08-10T03:28:39.178Z,28.40
2018-08-10T03:31:10.671Z,27.30
2018-08-10T03:33:42.376Z,28.00
2018-08-10T03:36:13.973Z,27.33
2018-08-10T03:38:45.641Z,27.37
2018-08-10T03:41:16.906Z,26.60
2018-08-10T03:43:48.594Z,29.40
2018-08-10T03:46:20.105Z,25.63
2018-08-10T03:48:51.710Z,27.40
2018-08-10T03:51:23.237Z,27.53
2018-08-10T03:53:55.010Z,27.40
2018-08-10T03:56:26.415Z,26.60
2018-08-10T03:58:58.093Z,25.10
2018-08-10T04:01:29.603Z,26.47
2018-08-10T04:04:01.218Z,26.90
2018-08-10T04:06:32.666Z,24.07
2018-08-10T04:09:05.814Z,25.37
2018-08-10T04:11:37.242Z,24.77
2018-08-10T04:14:09.149Z,25.40
2018-08-10T04:16:40.659Z,26.00
2018-08-10T04:19:12.285Z,27.20
2018-08-10T04:21:43.601Z,25.10
2018-08-10T04:24:15.426Z,25.23
2018-08-10T04:26:46.778Z,25.07
2018-08-10T04:29:18.490Z,27.23
2018-08-10T04:31:49.986Z,25.70
2018-08-10T04:34:21.889Z,26.73
2018-08-10T04:36:52.825Z,24.33
2018-08-10T04:39:24.338Z,23.53
2018-08-10T04:41:55.722Z,27.40
2018-08-10T04:44:27.053Z,25.60
2018-08-10T04:46:58.224Z,24.83
2018-08-10T04:49:29.760Z,25.93
2018-08-10T04:52:00.854Z,25.50
2018-08-10T04:54:32.432Z,27.27
2018-08-10T04:57:03.556Z,23.77
2018-08-10T04:59:34.861Z,23.60
2018-08-10T05:02:06.653Z,26.07
2018-08-10T05:04:38.122Z,22.40
2018-08-10T05:07:09.498Z,22.27
2018-08-10T05:09:42.079Z,23.90
2018-08-10T05:12:13.282Z,22.47
2018-08-10T05:14:44.962Z,23.00
2018-08-10T05:17:16.154Z,24.27
2018-08-10T05:19:47.630Z,24.80
2018-08-10T05:22:18.962Z,23.90
2018-08-10T05:24:50.350Z,23.00
2018-08-10T05:27:21.670Z,25.40
2018-08-10T05:29:52.942Z,22.97
2018-08-10T05:32:24.447Z,24.30
2018-08-10T05:34:55.777Z,22.60
2018-08-10T05:37:27.067Z,20.50
2018-08-10T05:39:58.391Z,22.57
2018-08-10T05:42:29.686Z,21.27
2018-08-10T05:45:01.070Z,22.27
2018-08-10T05:47:32.175Z,21.77
2018-08-10T05:50:03.501Z,22.30
2018-08-10T05:52:34.762Z,22.77
2018-08-10T05:55:06.741Z,20.90
2018-08-10T05:57:38.044Z,21.47
2018-08-10T06:00:10.162Z,21.00
2018-08-10T06:02:41.226Z,21.40
2018-08-10T06:05:12.971Z,20.57
2018-08-10T06:07:44.250Z,20.77
2018-08-10T06:10:18.613Z,20.72
2018-08-10T06:12:49.750Z,21.33
2018-08-10T06:15:21.364Z,21.33
2018-08-10T06:17:52.721Z,22.62
2018-08-10T06:20:23.965Z,20.25
2018-08-10T06:22:55.028Z,19.23
2018-08-10T06:25:26.634Z,20.70
2018-08-10T06:27:57.845Z,21.30
2018-08-10T06:30:29.262Z,19.45
2018-08-10T06:33:00.640Z,20.57
2018-08-10T06:35:31.743Z,18.82
2018-08-10T06:38:03.010Z,17.75
2018-08-10T06:40:34.338Z,20.50
2018-08-10T06:43:05.424Z,18.50
2018-08-10T06:45:36.623Z,20.60
2018-08-10T06:48:07.953Z,19.17
2018-08-10T06:50:39.446Z,20.40
2018-08-10T06:53:10.660Z,19.92
2018-08-10T06:55:42.130Z,20.48
2018-08-10T06:58:13.345Z,19.45
2018-08-10T07:00:44.710Z,18.82
2018-08-10T07:03:15.930Z,20.68
2018-08-10T07:05:47.484Z,17.70
2018-08-10T07:08:18.533Z,18.15
2018-08-10T07:10:51.019Z,20.72
2018-08-10T07:13:22.223Z,18.85
2018-08-10T07:15:53.445Z,20.43
2018-08-10T07:18:24.650Z,19.42
2018-08-10T07:20:56.030Z,18.98
2018-08-10T07:23:27.078Z,19.12
2018-08-10T07:25:58.533Z,20.05
2018-08-10T07:28:29.662Z,21.65
2018-08-10T07:31:00.927Z,20.65
2018-08-10T07:33:32.379Z,20.48
2018-08-10T07:36:04.136Z,18.90
2018-08-10T07:38:35.551Z,19.48
2018-08-10T07:41:07.201Z,19.73
2018-08-10T07:43:38.442Z,19.95
2018-08-10T07:46:09.634Z,20.62
2018-08-10T07:48:50.555Z,20.35
2018-08-10T07:51:22.800Z,19.00
2018-08-10T07:53:53.875Z,21.65
2018-08-10T07:56:25.085Z,18.95
2018-08-10T07:58:56.281Z,19.52
2018-08-10T08:01:27.852Z,20.23
2018-08-10T08:03:59.071Z,18.15
2018-08-10T08:06:30.386Z,19.07
2018-08-10T08:09:01.610Z,20.37
2018-08-10T08:11:33.804Z,19.65
2018-08-10T08:14:05.226Z,19.15
2018-08-10T08:16:37.258Z,20.95
2018-08-10T08:19:08.442Z,19.05
2018-08-10T08:21:40.126Z,20.85
2018-08-10T08:24:11.222Z,19.05
2018-08-10T08:26:42.642Z,19.23
2018-08-10T08:29:13.802Z,21.00
2018-08-10T08:31:45.339Z,20.27
2018-08-10T08:34:16.563Z,20.45
2018-08-10T08:36:47.977Z,21.85
2018-08-10T08:39:29.736Z,20.20
2018-08-10T08:42:01.207Z,19.48
2018-08-10T08:45:42.189Z,21.62
2018-08-10T08:48:13.819Z,21.15
2018-08-10T08:50:46.417Z,22.40
2018-08-10T08:53:17.869Z,20.48
2018-08-10T08:55:51.914Z,19.90
2018-08-10T08:58:23.936Z,19.92
2018-08-10T09:00:55.211Z,19.52
2018-08-10T09:03:36.876Z,20.52
2018-08-10T09:06:08.706Z,19.70
2018-08-10T09:08:40.430Z,19.30
2018-08-10T09:11:11.554Z,18.25
2018-08-10T09:14:58.167Z,20.30
2018-08-10T09:17:29.304Z,16.80
2018-08-10T09:20:01.004Z,17.30
2018-08-10T09:22:32.382Z,18.50
2018-08-10T09:25:03.806Z,17.55
2018-08-10T09:27:35.064Z,17.65
2018-08-10T09:30:07.642Z,17.57
2018-08-10T09:32:38.974Z,18.37
2018-08-10T09:35:11.270Z,18.42
2018-08-10T09:37:42.734Z,16.90
2018-08-10T09:40:21.812Z,15.90
2018-08-10T09:42:53.026Z,17.35
2018-08-10T09:45:24.333Z,15.70
2018-08-10T09:47:55.683Z,17.70
2018-08-10T09:50:26.954Z,17.23
2018-08-10T09:53:00.711Z,16.60
2018-08-10T09:55:38.695Z,17.73
2018-08-10T09:58:17.798Z,16.40
2018-08-10T10:00:54.134Z,17.20
2018-08-10T10:03:26.798Z,16.03
2018-08-10T10:05:59.667Z,18.20
2018-08-10T10:08:30.625Z,17.00
2018-08-10T10:11:02.037Z,15.85
2018-08-10T10:13:33.126Z,17.80
2018-08-10T10:16:05.889Z,16.40
2018-08-10T10:18:36.912Z,17.23
2018-08-10T10:21:08.274Z,19.03
2018-08-10T10:23:39.824Z,17.10
2018-08-10T10:26:11.113Z,18.50
2018-08-10T10:28:42.162Z,18.63
2018-08-10T10:31:13.669Z,17.30
2018-08-10T10:33:44.725Z,17.77
2018-08-10T10:36:16.040Z,19.40
2018-08-10T10:38:47.255Z,17.93
2018-08-10T10:41:18.574Z,17.27
2018-08-10T10:43:49.722Z,18.67
2018-08-10T10:46:20.893Z,17.20
2018-08-10T10:48:52.042Z,18.80
2018-08-10T10:51:23.614Z,18.40
2018-08-10T10:53:54.586Z,15.80
2018-08-10T10:56:25.744Z,18.53
2018-08-10T10:58:57.701Z,19.20
2018-08-10T11:01:29.258Z,17.50
2018-08-10T11:04:00.306Z,17.57
2018-08-10T11:06:31.597Z,17.63
2018-08-10T11:09:03.048Z,18.07
2018-08-10T11:11:35.142Z,17.93
2018-08-10T11:14:06.587Z,20.47
2018-08-10T11:16:39.145Z,19.73
2018-08-10T11:19:10.259Z,18.93
2018-08-10T11:21:41.597Z,18.43
2018-08-10T11:24:12.678Z,18.60
2018-08-10T11:26:44.083Z,16.27
2018-08-10T11:29:15.142Z,21.17
2018-08-10T11:31:46.615Z,19.77
2018-08-10T11:34:17.617Z,19.00
2018-08-10T11:36:48.950Z,16.27
2018-08-10T11:39:20.047Z,19.40
2018-08-10T11:41:51.611Z,18.37
2018-08-10T11:44:22.822Z,18.23
2018-08-10T11:46:54.305Z,19.07
2018-08-10T11:49:25.457Z,19.37
2018-08-10T11:51:56.926Z,17.20
2018-08-10T11:54:28.327Z,21.47
2018-08-10T11:57:00.114Z,17.80
2018-08-10T11:59:31.346Z,17.93
2018-08-10T12:02:02.951Z,17.80
2018-08-10T12:04:34.245Z,17.37
2018-08-10T12:07:05.730Z,18.30
2018-08-10T12:09:37.306Z,20.60
2018-08-10T12:12:09.537Z,17.97
2018-08-10T12:15:27.069Z,17.53
2018-08-10T12:17:59.813Z,18.80
2018-08-10T12:20:32.581Z,17.27
2018-08-10T12:23:04.177Z,18.70
2018-08-10T12:25:35.614Z,18.90
2018-08-10T12:28:07.270Z,18.60
2018-08-10T12:30:38.419Z,20.20
2018-08-10T12:33:09.930Z,19.10
2018-08-10T12:35:40.950Z,17.57
2018-08-10T12:38:12.324Z,18.40
2018-08-10T12:40:43.546Z,16.50
2018-08-10T12:43:14.906Z,17.23
2018-08-10T12:45:46.201Z,16.87
2018-08-10T12:48:17.593Z,17.47
2018-08-10T12:50:48.945Z,18.37
2018-08-10T12:53:20.570Z,17.90
2018-08-10T12:55:51.784Z,15.77
2018-08-10T12:58:23.029Z,17.30
2018-08-10T13:00:54.458Z,17.37
2018-08-10T13:03:25.986Z,17.90
2018-08-10T13:05:57.074Z,16.07
2018-08-10T13:08:28.391Z,17.60
2018-08-10T13:10:59.919Z,14.83
2018-08-10T13:13:31.390Z,18.00
2018-08-10T13:16:02.632Z,18.13
2018-08-10T13:18:35.037Z,18.43
2018-08-10T13:21:06.339Z,17.50
2018-08-10T13:23:37.531Z,19.20
2018-08-10T13:26:09.146Z,17.83
2018-08-10T13:28:40.330Z,21.57
2018-08-10T13:31:11.834Z,21.93
2018-08-10T13:33:43.181Z,19.70
2018-08-10T13:36:14.558Z,19.83
2018-08-10T13:38:45.774Z,18.80
2018-08-10T13:41:16.945Z,20.23
2018-08-10T13:43:48.287Z,21.13
2018-08-10T13:46:19.535Z,19.90
2018-08-10T13:48:51.007Z,19.13
2018-08-10T13:51:22.275Z,20.80
2018-08-10T13:53:53.698Z,20.27
2018-08-10T13:56:25.125Z,20.07
2018-08-10T13:58:56.784Z,23.40
2018-08-10T14:01:27.835Z,21.63
2018-08-10T14:03:59.021Z,20.23
2018-08-10T14:06:30.267Z,19.83
2018-08-10T14:09:01.793Z,20.60
2018-08-10T14:11:33.017Z,21.90
2018-08-10T14:14:04.706Z,20.07
2018-08-10T14:16:35.932Z,20.57
2018-08-10T14:19:08.624Z,22.20
2018-08-10T14:21:39.858Z,22.20
2018-08-10T14:24:11.198Z,21.77
2018-08-10T14:26:42.368Z,20.70
2018-08-10T14:29:13.484Z,20.30
2018-08-10T14:31:44.772Z,21.27
2018-08-10T14:34:16.735Z,21.20
2018-08-10T14:36:48.066Z,21.43
2018-08-10T14:39:19.538Z,20.73
2018-08-10T14:41:50.613Z,22.67
2018-08-10T14:44:22.096Z,20.67
2018-08-10T14:46:53.282Z,22.50
2018-08-10T14:49:24.873Z,22.90
2018-08-10T14:51:57.685Z,21.33
2018-08-10T14:54:31.687Z,22.67
2018-08-10T14:57:06.541Z,23.10
2018-08-10T14:59:40.109Z,21.27
2018-08-10T15:02:14.430Z,21.90
2018-08-10T15:04:47.571Z,21.03
2018-08-10T15:07:20.437Z,22.40
2018-08-10T15:09:54.133Z,21.40
2018-08-10T15:12:27.262Z,22.23
2018-08-10T15:15:00.706Z,21.90
2018-08-10T15:17:34.334Z,22.07
2018-08-10T15:20:08.285Z,23.50
2018-08-10T15:22:41.934Z,22.47
2018-08-10T15:25:16.966Z,21.90
2018-08-10T15:27:51.393Z,22.03
2018-08-10T15:30:24.434Z,20.30
2018-08-10T15:32:57.550Z,22.97
2018-08-10T15:35:32.326Z,22.27
2018-08-10T15:38:04.006Z,22.00
2018-08-10T15:40:39.733Z,22.53
2018-08-10T15:43:14.114Z,21.97
2018-08-10T15:45:46.581Z,22.93
2018-08-10T15:48:21.078Z,22.47
2018-08-10T15:50:53.482Z,22.70
2018-08-10T15:53:28.249Z,21.63
2018-08-10T15:56:01.554Z,22.00
2018-08-10T15:58:36.582Z,22.60
2018-08-10T16:01:10.649Z,21.60
2018-08-10T16:03:43.154Z,21.63
2018-08-10T16:06:16.589Z,20.63
2018-08-10T16:08:50.263Z,21.43
2018-08-10T16:11:24.674Z,20.90
2018-08-10T16:13:57.505Z,19.13
2018-08-10T16:16:30.442Z,20.40
2018-08-10T16:19:04.064Z,22.97
2018-08-10T16:21:38.771Z,20.60
2018-08-10T16:24:13.983Z,22.30
2018-08-10T16:26:46.575Z,22.03
2018-08-10T16:29:20.876Z,19.67
2018-08-10T16:31:54.640Z,22.07
2018-08-10T16:34:27.412Z,21.13
2018-08-10T16:36:59.841Z,20.40
2018-08-10T16:39:33.759Z,22.20
2018-08-10T16:42:09.078Z,20.60
2018-08-10T16:44:44.640Z,21.50
2018-08-10T16:47:19.333Z,21.40
2018-08-10T16:49:52.992Z,20.33
2018-08-10T16:52:26.422Z,19.30
2018-08-10T16:55:00.181Z,21.33
2018-08-10T16:57:35.306Z,20.90
2018-08-10T17:00:09.334Z,20.43
2018-08-10T17:02:43.734Z,22.47
2018-08-10T17:05:18.325Z,19.07
2018-08-10T17:07:55.513Z,19.40
2018-08-10T17:10:29.697Z,22.00
2018-08-10T17:13:04.486Z,21.00
2018-08-10T17:15:38.803Z,23.00
2018-08-10T17:18:14.378Z,23.20
2018-08-10T17:20:49.125Z,21.20
2018-08-10T17:23:24.874Z,23.47
2018-08-10T17:25:58.553Z,20.43
2018-08-10T17:28:31.782Z,21.60
2018-08-10T17:31:06.137Z,23.60
2018-08-10T17:33:39.781Z,20.90
2018-08-10T17:36:14.590Z,20.20
2018-08-10T17:38:48.157Z,21.03
2018-08-10T17:41:22.174Z,19.63
2018-08-10T17:43:55.938Z,17.00
2018-08-10T17:46:30.382Z,15.43
2018-08-10T17:49:04.643Z,17.90
2018-08-10T17:51:36.565Z,15.63
2018-08-10T17:54:11.021Z,17.77
2018-08-10T17:56:45.796Z,17.17
2018-08-10T17:59:18.777Z,14.13
2018-08-10T18:01:51.865Z,15.90
2018-08-10T18:04:24.726Z,15.60
2018-08-10T18:06:59.806Z,14.97
2018-08-10T18:09:32.242Z,15.27
2018-08-10T18:12:05.873Z,15.80
2018-08-10T18:14:38.705Z,14.60
2018-08-10T18:17:12.986Z,13.70
2018-08-10T18:19:47.698Z,13.23
2018-08-10T18:22:20.896Z,14.30
2018-08-10T18:24:55.449Z,13.77
2018-08-10T18:27:30.390Z,13.80
2018-08-10T18:30:04.339Z,12.47
2018-08-10T18:32:39.318Z,12.50
2018-08-10T18:35:13.575Z,14.13
2018-08-10T18:37:46.661Z,13.50
2018-08-10T18:40:20.108Z,13.23
2018-08-10T18:42:54.110Z,12.30
2018-08-10T18:45:26.322Z,13.17
2018-08-10T18:48:00.194Z,14.53
2018-08-10T18:50:32.487Z,15.17
2018-08-10T18:53:05.554Z,12.37
2018-08-10T18:55:37.782Z,14.40
2018-08-10T18:58:11.970Z,12.90
2018-08-10T19:00:45.372Z,13.07
2018-08-10T19:03:18.180Z,13.90
2018-08-10T19:05:53.342Z,13.40
2018-08-10T19:08:27.405Z,13.50
2018-08-10T19:11:02.027Z,13.60
2018-08-10T19:13:35.914Z,13.40
2018-08-10T19:16:11.754Z,13.77
2018-08-10T19:18:45.351Z,12.77
2018-08-10T19:21:19.826Z,13.50
2018-08-10T19:23:54.446Z,12.53
2018-08-10T19:26:30.821Z,12.73
2018-08-10T19:29:03.230Z,12.90
2018-08-10T19:31:34.931Z,14.57
2018-08-10T19:34:06.578Z,12.87
2018-08-10T19:36:38.118Z,15.40
2018-08-10T19:39:12.219Z,15.13
2018-08-10T19:41:43.552Z,12.47
2018-08-10T19:44:14.602Z,13.57
2018-08-10T19:46:45.912Z,13.70
2018-08-10T19:49:17.102Z,12.20
2018-08-10T19:51:48.611Z,14.17
2018-08-10T19:54:19.809Z,13.20
2018-08-10T19:56:51.058Z,13.13
2018-08-10T19:59:22.730Z,12.13
2018-08-10T20:01:54.456Z,13.13
2018-08-10T20:04:26.020Z,14.83
2018-08-10T20:06:58.182Z,14.50
2018-08-10T20:09:29.734Z,13.20
2018-08-10T20:12:01.597Z,13.67
2018-08-10T20:14:32.769Z,12.50
2018-08-10T20:17:04.102Z,12.50
2018-08-10T20:19:35.168Z,13.60
2018-08-10T20:22:08.735Z,13.90
2018-08-10T20:24:40.062Z,14.27
2018-08-10T20:27:13.022Z,13.27
2018-08-10T20:29:44.122Z,14.60
2018-08-10T20:32:15.573Z,13.43
2018-08-10T20:34:46.545Z,12.80
2018-08-10T20:37:18.070Z,12.40
2018-08-10T20:39:49.001Z,13.17
2018-08-10T20:42:20.799Z,13.03
2018-08-10T20:44:52.206Z,14.20
2018-08-10T20:47:23.532Z,12.60
2018-08-10T20:49:54.622Z,13.60
2018-08-10T20:52:26.002Z,11.43
2018-08-10T20:54:57.273Z,13.73
2018-08-10T20:57:28.728Z,12.53
2018-08-10T20:59:59.714Z,13.80
2018-08-10T21:02:31.453Z,12.03
2018-08-10T21:05:02.529Z,13.20
2018-08-10T21:07:34.121Z,13.30
2018-08-10T21:10:05.298Z,13.07
2018-08-10T21:12:36.890Z,12.57
2018-08-10T21:15:10.110Z,13.47
2018-08-10T21:17:42.507Z,10.73
2018-08-10T21:20:14.490Z,15.57
2018-08-10T21:22:46.057Z,12.13
2018-08-10T21:25:17.159Z,12.40
2018-08-10T21:27:49.669Z,14.30
2018-08-10T21:30:21.257Z,12.63
2018-08-10T21:32:52.437Z,12.73
2018-08-10T21:35:23.626Z,12.23
2018-08-10T21:37:55.039Z,11.87
2018-08-10T21:40:26.126Z,12.87
2018-08-10T21:42:57.382Z,12.57
2018-08-10T21:45:28.523Z,13.30
2018-08-10T21:47:59.965Z,12.27
2018-08-10T21:50:31.123Z,13.17
2018-08-10T21:53:02.820Z,12.67
2018-08-10T21:55:33.802Z,12.90
2018-08-10T21:58:05.253Z,12.40
2018-08-10T22:00:48.858Z,13.17
2018-08-10T22:03:20.715Z,13.40
2018-08-10T22:05:52.315Z,12.80
2018-08-10T22:08:24.132Z,12.77
2018-08-10T22:10:55.448Z,13.40
2018-08-10T22:13:31.562Z,13.73
2018-08-10T22:16:07.342Z,12.70
2018-08-10T22:18:43.229Z,12.80
2018-08-10T22:21:14.342Z,12.87
2018-08-10T22:23:45.554Z,11.93
2018-08-10T22:26:16.835Z,12.00
2018-08-10T22:28:49.427Z,12.90
2018-08-10T22:31:20.749Z,13.17
2018-08-10T22:33:52.144Z,13.40
2018-08-10T22:36:23.450Z,12.07
2018-08-10T22:38:54.558Z,12.40
2018-08-10T22:41:25.639Z,12.90
2018-08-10T22:43:56.949Z,13.00
2018-08-10T22:46:27.967Z,12.90
2018-08-10T22:48:59.604Z,13.30
2018-08-10T22:51:30.726Z,13.93
2018-08-10T22:54:02.141Z,14.07
2018-08-10T22:56:33.201Z,13.03
2018-08-10T22:59:04.699Z,12.57
2018-08-10T23:01:35.789Z,13.67
2018-08-10T23:04:07.276Z,12.73
2018-08-10T23:06:38.432Z,12.37
2018-08-10T23:09:12.309Z,12.13
2018-08-10T23:11:43.669Z,11.60
2018-08-10T23:14:14.863Z,11.80
2018-08-10T23:16:46.273Z,12.37
2018-08-10T23:19:18.043Z,12.07
2018-08-10T23:21:49.092Z,13.57
2018-08-10T23:24:20.383Z,14.40
2018-08-10T23:26:52.630Z,12.20
2018-08-10T23:29:25.055Z,14.00
2018-08-10T23:31:56.423Z,13.17
2018-08-10T23:34:27.914Z,13.40
2018-08-10T23:36:58.862Z,14.27
2018-08-10T23:39:30.797Z,13.33
2018-08-10T23:42:01.809Z,13.47
2018-08-10T23:44:33.233Z,13.30
2018-08-10T23:47:04.411Z,14.00
2018-08-10T23:49:35.966Z,14.60
2018-08-10T23:52:07.190Z,15.20
2018-08-10T23:54:38.578Z,15.30
2018-08-10T23:57:09.718Z,15.20
2018-08-10T23:59:41.342Z,13.27
